Time;durP1;ratioP1;P1;durP2;ratioP2;P2;SDS_P1;SDS_P2;PMS_P1;PMS_P2;Temp;Humidity;BMP_temperature;BMP_pressure;BME280_temperature;BME280_humidity;BME280_pressure;Samples;Min_cycle;Max_cycle;Signal;HPM_P1;HPM_P2
2022/03/10 00:00:49;;;;;;;32.38;20.75;;;;;;;-1.17;73.95;102194.94;10355161;28;20513;-79
2022/03/10 00:05:49;;;;;;;35.35;21.52;;;;;;;-0.93;72.48;102202.00;10376478;28;20033;-78
2022/03/10 00:10:50;;;;;;;31.13;19.35;;;;;;;-1.02;71.80;102204.41;10352158;28;20120;-79
2022/03/10 00:15:50;;;;;;;37.30;20.25;;;;;;;-1.13;72.69;102202.25;10335134;28;20548;-78
2022/03/10 00:20:51;;;;;;;33.90;20.02;;;;;;;-1.26;74.24;102205.06;10358389;28;20445;-79
2022/03/10 00:25:52;;;;;;;34.00;18.63;;;;;;;-1.34;75.27;102214.44;10358062;28;20026;-79
2022/03/10 00:30:52;;;;;;;32.80;18.50;;;;;;;-1.45;75.91;102209.69;10373786;28;20147;-78
2022/03/10 00:35:53;;;;;;;29.40;19.77;;;;;;;-1.50;76.55;102207.50;10376447;28;20432;-79
2022/03/10 00:40:53;;;;;;;30.67;18.70;;;;;;;-1.57;76.75;102211.75;10353112;28;20113;-79
2022/03/10 00:45:54;;;;;;;37.83;21.15;;;;;;;-1.39;76.67;102210.41;10335647;28;20119;-78
2022/03/10 00:50:54;;;;;;;33.17;21.17;;;;;;;-1.46;75.78;102215.56;10357503;28;20037;-79
2022/03/10 00:55:55;;;;;;;36.33;18.92;;;;;;;-1.53;76.45;102219.06;10373582;28;20033;-79
2022/03/10 01:00:58;;;;;;;33.63;20.98;;;;;;;-1.85;76.76;102224.78;10335778;28;20038;-79
2022/03/10 01:05:59;;;;;;;33.80;21.52;;;;;;;-2.11;77.80;102225.16;10334881;28;20518;-78
2022/03/10 01:11:00;;;;;;;37.03;22.42;;;;;;;-2.32;78.42;102227.69;10353177;28;20108;-79
2022/03/10 01:16:00;;;;;;;30.47;17.07;;;;;;;-2.50;79.02;102227.28;10340766;28;20139;-78
2022/03/10 01:21:01;;;;;;;27.95;18.27;;;;;;;-2.60;79.93;102221.75;10349685;28;20497;-78
2022/03/10 01:26:01;;;;;;;39.75;22.90;;;;;;;-2.49;80.48;102226.56;10331178;28;20050;-79
2022/03/10 01:31:02;;;;;;;26.17;18.45;;;;;;;-2.47;80.83;102219.06;10336752;28;20070;-79
2022/03/10 01:36:02;;;;;;;35.30;20.53;;;;;;;-2.53;81.40;102219.22;10359482;28;20036;-78
2022/03/10 01:41:03;;;;;;;45.15;21.73;;;;;;;-2.51;81.80;102216.13;10349099;28;20042;-79
2022/03/10 01:46:03;;;;;;;38.45;21.17;;;;;;;-2.52;81.45;102213.38;10332434;28;20490;-79
2022/03/10 01:51:04;;;;;;;37.83;22.47;;;;;;;-2.58;81.38;102217.75;10356857;28;20041;-78
2022/03/10 01:56:05;;;;;;;34.30;20.30;;;;;;;-2.63;81.52;102214.63;10355840;28;20038;-79
2022/03/10 02:01:08;;;;;;;37.07;20.97;;;;;;;-2.71;81.39;102216.25;10347659;28;20030;-78
2022/03/10 02:06:09;;;;;;;40.22;19.80;;;;;;;-2.71;81.50;102208.56;10315058;28;20038;-79
2022/03/10 02:11:10;;;;;;;36.33;23.70;;;;;;;-2.91;81.71;102218.00;10338909;28;20021;-78
2022/03/10 02:21:33;;;;;;;40.92;20.75;;;;;;;-3.25;82.81;102196.84;10344025;28;20030;-78
2022/03/10 02:26:33;;;;;;;32.23;19.67;;;;;;;-3.30;83.37;102201.38;10330174;28;20030;-78
2022/03/10 02:31:34;;;;;;;30.57;19.73;;;;;;;-3.34;83.60;102195.69;10337924;28;20409;-79
2022/03/10 02:36:34;;;;;;;33.07;20.33;;;;;;;-3.27;84.31;102203.41;10297062;28;20052;-78
2022/03/10 02:41:35;;;;;;;32.20;21.53;;;;;;;-3.30;83.99;102201.38;10359003;28;20065;-79
2022/03/10 02:46:35;;;;;;;33.77;21.67;;;;;;;-3.23;84.27;102207.25;10371548;28;20137;-79
2022/03/10 02:51:36;;;;;;;37.87;22.07;;;;;;;-3.29;84.16;102200.63;10342917;28;20042;-78
2022/03/10 02:56:37;;;;;;;34.50;20.63;;;;;;;-3.35;84.42;102196.41;10343975;28;20108;-79
2022/03/10 03:01:37;;;;;;;36.33;21.27;;;;;;;-3.60;84.52;102188.22;10342491;28;20042;-79
2022/03/10 03:06:38;;;;;;;42.30;21.27;;;;;;;-3.66;84.92;102197.69;10335423;28;20057;-78
2022/03/10 03:11:38;;;;;;;31.57;19.97;;;;;;;-3.60;85.15;102203.59;10341207;28;20076;-78
2022/03/10 03:16:39;;;;;;;34.80;20.87;;;;;;;-3.56;85.60;102211.81;10329275;28;20554;-78
2022/03/10 03:21:40;;;;;;;36.50;19.33;;;;;;;-3.47;85.66;102206.03;10367695;28;20029;-78
2022/03/10 03:26:41;;;;;;;38.87;21.57;;;;;;;-3.52;86.05;102208.03;10370050;28;20022;-78
2022/03/10 03:31:42;;;;;;;35.97;21.90;;;;;;;-3.48;85.94;102204.19;10334429;28;20123;-78
2022/03/10 03:36:43;;;;;;;31.47;17.40;;;;;;;-3.45;86.04;102208.06;10335517;28;20054;-78
2022/03/10 03:41:44;;;;;;;42.08;21.00;;;;;;;-3.47;86.04;102211.13;10324959;28;20034;-78
2022/03/10 03:46:44;;;;;;;28.80;14.93;;;;;;;-3.51;86.31;102206.38;10329887;28;20054;-78
2022/03/10 03:51:45;;;;;;;39.30;19.47;;;;;;;-3.54;86.12;102209.47;10376874;28;20050;-78
2022/03/10 03:56:45;;;;;;;37.57;22.17;;;;;;;-3.55;86.28;102217.88;10377829;28;20117;-78
2022/03/10 04:01:46;;;;;;;47.97;23.43;;;;;;;-3.59;86.23;102219.13;10353088;28;20020;-78
2022/03/10 04:06:46;;;;;;;51.30;22.77;;;;;;;-3.62;86.19;102218.72;10375778;28;20042;-78
2022/03/10 04:11:47;;;;;;;43.37;22.40;;;;;;;-3.58;86.36;102218.38;10347124;28;20023;-78
2022/03/10 04:16:47;;;;;;;35.63;19.67;;;;;;;-3.74;86.42;102222.31;10319775;28;20114;-78
2022/03/10 04:21:48;;;;;;;38.90;23.23;;;;;;;-3.91;86.42;102230.41;10361800;28;20036;-78
2022/03/10 04:26:48;;;;;;;47.87;23.27;;;;;;;-4.02;86.50;102231.59;10341231;28;20072;-78
2022/03/10 04:31:49;;;;;;;40.10;22.50;;;;;;;-4.06;86.83;102229.34;10348183;28;20022;-78
2022/03/10 04:36:49;;;;;;;41.43;22.17;;;;;;;-4.10;86.83;102225.50;10357700;28;20581;-78
2022/03/10 04:41:51;;;;;;;45.50;25.37;;;;;;;-4.14;86.97;102225.84;10356869;28;20054;-78
2022/03/10 04:46:51;;;;;;;38.55;21.75;;;;;;;-4.16;87.07;102232.38;10373871;28;20042;-77
2022/03/10 04:51:52;;;;;;;28.67;17.60;;;;;;;-4.15;87.11;102221.44;10371827;28;20042;-78
2022/03/10 04:56:53;;;;;;;49.17;21.57;;;;;;;-4.21;87.35;102223.22;10333230;28;20121;-78
2022/03/10 05:01:53;;;;;;;46.07;23.97;;;;;;;-4.17;87.62;102221.22;10342002;28;20041;-78
2022/03/10 05:06:54;;;;;;;41.40;24.53;;;;;;;-4.06;87.87;102224.25;10374216;28;20117;-79
2022/03/10 05:11:54;;;;;;;42.97;27.03;;;;;;;-4.00;87.72;102228.50;10350612;28;20081;-78
2022/03/10 05:16:55;;;;;;;38.57;21.53;;;;;;;-3.97;87.94;102234.75;10341548;28;20060;-78
2022/03/10 05:21:55;;;;;;;37.23;21.97;;;;;;;-4.09;87.99;102244.31;10333161;28;20057;-78
2022/03/10 05:26:57;;;;;;;50.43;22.83;;;;;;;-4.07;88.29;102237.75;10354039;28;20060;-75
2022/03/10 05:31:58;;;;;;;;;;;;;;;-4.00;88.68;102238.75;10364354;28;20037;-74
2022/03/10 05:36:58;;;;;;;47.35;25.27;;;;;;;-3.86;88.46;102232.81;10348983;28;19926;-77
2022/03/10 05:41:59;;;;;;;46.43;26.70;;;;;;;-3.86;88.01;102240.50;10347021;28;20478;-78
2022/03/10 05:46:59;;;;;;;50.53;24.50;;;;;;;-4.00;87.39;102237.81;10351294;28;20069;-77
2022/03/10 05:52:00;;;;;;;29.60;15.10;;;;;;;-3.88;86.86;102244.50;10350379;28;20432;-75
2022/03/10 05:57:01;;;;;;;38.37;20.97;;;;;;;-3.89;86.29;102242.66;10349556;28;20121;-75
2022/03/10 06:02:01;;;;;;;39.03;23.57;;;;;;;-4.00;86.62;102248.03;10340117;28;20409;-77
2022/03/10 06:07:02;;;;;;;38.53;22.13;;;;;;;-3.95;86.68;102248.66;10336096;28;20375;-77
2022/03/10 06:12:03;;;;;;;34.33;20.90;;;;;;;-3.96;87.33;102249.38;10330878;28;20054;-75
2022/03/10 06:17:03;;;;;;;37.77;20.70;;;;;;;-3.90;87.40;102256.16;10348312;28;20478;-78
2022/03/10 06:22:04;;;;;;;43.47;24.73;;;;;;;-3.77;87.75;102261.22;10306720;28;20048;-77
2022/03/10 06:27:04;;;;;;;35.47;23.70;;;;;;;-3.65;87.56;102271.19;10343257;28;20066;-78
2022/03/10 06:32:05;;;;;;;39.03;23.00;;;;;;;-3.65;87.76;102264.41;10332420;28;20072;-78
2022/03/10 06:37:06;;;;;;;40.20;22.07;;;;;;;-3.61;87.67;102252.94;10372086;28;20034;-77
2022/03/10 06:42:06;;;;;;;35.03;20.20;;;;;;;-3.52;88.17;102259.22;10325275;28;20394;-77
2022/03/10 06:47:09;;;;;;;44.60;23.53;;;;;;;-3.26;88.35;102264.13;10335114;28;20045;-78
2022/03/10 06:52:09;;;;;;;39.42;24.73;;;;;;;-2.99;88.06;102256.41;10353119;28;20500;-78
2022/03/10 06:57:12;;;;;;;39.20;20.23;;;;;;;-1.84;88.69;102259.09;10372013;28;20041;-78
2022/03/10 07:02:13;;;;;;;36.38;20.98;;;;;;;-0.99;83.43;102266.47;10316004;28;20065;-77
2022/03/10 07:07:13;;;;;;;38.55;19.95;;;;;;;0.22;81.54;102267.25;10354436;28;20061;-78
2022/03/10 07:12:14;;;;;;;34.72;16.27;;;;;;;2.72;68.93;102257.47;10333485;28;20128;-78
2022/03/10 07:17:14;;;;;;;23.92;15.75;;;;;;;4.61;61.75;102248.94;10313767;28;20402;-78
2022/03/10 07:22:18;;;;;;;26.05;14.73;;;;;;;6.14;54.78;102256.66;10351571;28;20076;-79
2022/03/10 07:27:18;;;;;;;24.13;15.77;;;;;;;5.87;53.18;102257.72;10305670;28;20438;-78
2022/03/10 07:32:20;;;;;;;20.67;13.10;;;;;;;6.38;52.90;102266.50;10319680;28;20022;-77
2022/03/10 07:37:20;;;;;;;24.30;14.30;;;;;;;8.03;50.59;102266.31;10310405;28;20041;-76
2022/03/10 07:42:21;;;;;;;21.48;12.40;;;;;;;9.81;45.48;102260.69;10373788;28;20493;-77
2022/03/10 07:47:21;;;;;;;23.65;14.07;;;;;;;10.25;43.31;102256.81;10317566;28;20146;-78
2022/03/10 07:52:22;;;;;;;23.58;13.90;;;;;;;11.41;41.59;102253.38;10328663;28;20062;-79
2022/03/10 07:57:22;;;;;;;25.33;14.55;;;;;;;10.69;42.22;102254.63;10340946;28;20459;-78
2022/03/10 08:02:23;;;;;;;23.85;14.05;;;;;;;8.39;49.25;102250.84;10328148;28;20378;-79
2022/03/10 08:07:23;;;;;;;24.90;13.75;;;;;;;6.78;48.84;102249.13;10376557;28;20103;-79
2022/03/10 08:12:27;;;;;;;21.92;14.02;;;;;;;5.81;51.29;102258.06;10377152;28;20030;-79
2022/03/10 08:17:28;;;;;;;32.00;17.45;;;;;;;5.94;50.73;102247.09;10376002;28;20568;-80
2022/03/10 08:22:28;;;;;;;28.45;17.30;;;;;;;6.07;53.87;102251.69;10328394;28;20057;-78
2022/03/10 08:27:29;;;;;;;26.88;16.73;;;;;;;6.35;49.94;102241.13;10375787;28;20042;-79
2022/03/10 08:32:30;;;;;;;30.77;15.38;;;;;;;6.41;48.49;102243.34;10375502;28;20441;-79
2022/03/10 08:37:30;;;;;;;28.65;14.75;;;;;;;6.58;47.26;102231.78;10357733;28;20022;-78
2022/03/10 08:42:31;;;;;;;27.52;15.68;;;;;;;6.63;47.83;102220.06;10359937;28;20026;-78
2022/03/10 08:47:32;;;;;;;24.77;15.05;;;;;;;6.87;47.54;102228.16;10340993;28;20452;-78
2022/03/10 08:52:33;;;;;;;28.45;15.07;;;;;;;7.28;50.04;102227.19;10359022;28;20030;-78
2022/03/10 08:57:34;;;;;;;25.00;15.75;;;;;;;7.68;47.99;102220.06;10375245;28;20053;-78
2022/03/10 09:02:34;;;;;;;26.15;16.02;;;;;;;7.89;47.45;102218.25;10356584;28;20157;-78
2022/03/10 09:07:35;;;;;;;25.88;15.00;;;;;;;8.28;45.90;102220.38;10373983;28;20478;-78
2022/03/10 09:12:37;;;;;;;28.13;17.27;;;;;;;8.65;45.84;102212.84;10340477;28;20022;-78
2022/03/10 09:17:37;;;;;;;36.85;16.27;;;;;;;8.92;45.46;102200.09;10356392;28;20112;-78
2022/03/10 09:22:38;;;;;;;26.52;16.77;;;;;;;9.36;43.31;102192.06;10357651;28;20108;-78
2022/03/10 09:27:38;;;;;;;26.17;15.35;;;;;;;9.79;42.51;102198.59;10354221;28;20062;-78
2022/03/10 09:32:40;;;;;;;22.52;13.85;;;;;;;10.34;41.00;102195.47;10291186;28;20466;-79
2022/03/10 09:37:41;;;;;;;24.63;14.85;;;;;;;12.82;37.09;102177.31;10354869;28;20041;-78
2022/03/10 09:42:42;;;;;;;25.65;15.68;;;;;;;16.44;32.75;102166.97;10356697;28;20505;-78
2022/03/10 09:47:44;;;;;;;25.05;15.15;;;;;;;18.89;28.91;102155.31;10375802;28;20050;-78
2022/03/10 09:52:45;;;;;;;23.08;15.00;;;;;;;19.50;26.79;102155.53;10340135;28;20092;-78
2022/03/10 09:57:46;;;;;;;24.17;15.85;;;;;;;21.13;23.99;102151.22;10338478;28;20120;-78
2022/03/10 10:02:47;;;;;;;26.52;17.02;;;;;;;20.82;24.05;102145.13;10337924;28;20022;-79
2022/03/10 10:08:03;;;;;;;24.63;16.67;;;;;;;20.92;24.45;102143.56;10354458;28;20061;-78
2022/03/10 10:13:06;;;;;;;24.10;16.75;;;;;;;22.40;23.03;102155.72;10354264;28;20034;-79
2022/03/10 10:18:13;;;;;;;19.50;15.73;;;;;;;22.67;22.77;102146.44;10354093;28;20385;-79
2022/03/10 10:23:18;;;;;;;28.05;14.80;;;;;;;22.27;23.55;102147.47;10321866;28;20036;-79
2022/03/10 10:28:27;;;;;;;29.27;16.98;;;;;;;22.47;22.50;102138.09;10337534;28;20042;-79
2022/03/10 10:33:29;;;;;;;25.95;17.38;;;;;;;23.42;22.63;102140.56;10354555;28;20029;-77
2022/03/10 10:38:30;;;;;;;26.50;16.42;;;;;;;22.68;22.50;102127.81;10353590;28;20037;-77
2022/03/10 10:43:40;;;;;;;20.63;14.75;;;;;;;22.96;23.76;102135.38;10337597;28;20048;-76
2022/03/10 10:48:50;;;;;;;22.90;15.88;;;;;;;23.29;22.83;102128.78;10371426;28;20137;-77
2022/03/10 10:53:50;;;;;;;24.52;16.63;;;;;;;22.39;24.78;102119.25;10354694;28;20127;-77
2022/03/10 10:58:54;;;;;;;26.17;17.75;;;;;;;20.74;24.88;102118.28;10376244;28;20050;-76
2022/03/10 11:03:55;;;;;;;31.35;17.73;;;;;;;21.50;23.98;102125.44;10345966;28;20151;-77
2022/03/10 11:08:55;;;;;;;25.35;16.95;;;;;;;22.30;23.95;102111.97;10361225;28;20041;-77
2022/03/10 11:13:56;;;;;;;28.40;18.95;;;;;;;22.97;23.72;102106.06;10379631;28;20034;-77
2022/03/10 11:18:56;;;;;;;24.92;16.45;;;;;;;23.98;23.07;102098.53;10349108;28;20069;-77
2022/03/10 11:24:20;;;;;;;23.60;15.83;;;;;;;24.29;22.23;102101.56;10308645;28;20062;-77
2022/03/10 11:29:25;;;;;;;25.95;17.00;;;;;;;22.89;23.26;102091.69;10317323;28;20030;-77
2022/03/10 11:34:49;;;;;;;25.65;17.98;;;;;;;23.03;23.59;102097.22;10336092;28;20076;-78
2022/03/10 11:39:55;;;;;;;27.35;15.55;;;;;;;23.13;23.64;102087.59;10358432;28;20057;-78
2022/03/10 11:45:05;;;;;;;19.95;11.45;;;;;;;23.63;23.34;102082.97;10331516;28;20076;-77
2022/03/10 11:50:21;;;;;;;24.80;13.32;;;;;;;23.64;24.66;102080.28;10347586;28;20080;-78
2022/03/10 11:55:23;;;;;;;63.47;15.02;;;;;;;24.09;22.87;102064.81;10378327;28;20053;-78
2022/03/10 12:00:24;;;;;;;20.00;13.02;;;;;;;23.70;23.81;102067.00;10344674;28;20034;-79
2022/03/10 12:05:28;;;;;;;18.93;12.50;;;;;;;23.42;24.04;102068.44;10326644;28;20449;-78
2022/03/10 12:10:39;;;;;;;21.33;14.98;;;;;;;23.77;24.09;102065.31;10342806;28;20129;-78
2022/03/10 12:15:40;;;;;;;19.90;14.35;;;;;;;24.40;23.48;102051.72;10314905;28;20023;-78
2022/03/10 12:20:42;;;;;;;23.85;14.27;;;;;;;24.65;23.31;102049.25;10319457;28;20053;-76
2022/03/10 12:25:43;;;;;;;19.85;14.32;;;;;;;23.94;23.75;102040.56;10356221;28;20076;-77
2022/03/10 12:30:44;;;;;;;27.48;18.63;;;;;;;23.85;22.93;102023.53;10332028;28;20035;-77
2022/03/10 12:35:44;;;;;;;22.37;15.50;;;;;;;23.95;23.10;102023.63;10339753;28;20117;-78
2022/03/10 12:40:45;;;;;;;31.63;16.07;;;;;;;21.36;26.06;102009.72;10346220;28;20069;-77
2022/03/10 12:45:46;;;;;;;22.85;14.30;;;;;;;22.16;25.55;102007.72;10325758;28;20069;-77
2022/03/10 12:50:46;;;;;;;20.10;14.23;;;;;;;22.36;23.39;102012.50;10357900;28;20046;-78
2022/03/10 12:55:54;;;;;;;21.13;14.17;;;;;;;21.97;24.04;101993.19;10342873;28;20104;-79
2022/03/10 13:00:54;;;;;;;21.98;13.63;;;;;;;21.12;23.51;101998.56;10374476;28;20069;-78
2022/03/10 13:05:55;;;;;;;21.42;13.50;;;;;;;22.20;23.64;101984.72;10322023;28;20041;-78
2022/03/10 13:11:01;;;;;;;25.15;15.48;;;;;;;21.73;23.71;101983.88;10334539;28;20073;-79
2022/03/10 13:16:04;;;;;;;21.52;15.20;;;;;;;21.23;23.71;101973.94;10317431;28;20152;-79
2022/03/10 13:21:08;;;;;;;19.60;13.80;;;;;;;22.22;23.96;101972.31;10335116;28;20022;-76
2022/03/10 13:26:09;;;;;;;25.30;18.15;;;;;;;22.24;23.20;101970.56;10355198;28;20084;-77
2022/03/10 13:31:10;;;;;;;30.07;18.03;;;;;;;22.10;23.73;101960.56;10343028;28;20371;-79
2022/03/10 13:36:12;;;;;;;25.98;18.48;;;;;;;22.07;24.08;101957.84;10337042;28;20062;-79
2022/03/10 13:41:13;;;;;;;26.73;17.42;;;;;;;22.11;23.40;101949.03;10329764;28;20026;-78
2022/03/10 13:46:34;;;;;;;26.55;18.85;;;;;;;22.35;23.81;101941.38;10516274;28;20171;-81
2022/03/10 13:51:35;;;;;;;26.00;16.63;;;;;;;22.36;24.35;101943.19;10486607;28;20373;-79
2022/03/10 13:56:43;;;;;;;26.87;18.47;;;;;;;22.86;24.16;101927.03;10487914;28;20029;-80
2022/03/10 14:01:43;;;;;;;26.27;18.23;;;;;;;22.95;23.35;101917.38;10470917;28;20116;-78
2022/03/10 14:06:45;;;;;;;28.55;18.50;;;;;;;21.69;24.65;101915.41;10479191;28;20037;-78
2022/03/10 14:11:49;;;;;;;29.88;20.55;;;;;;;21.71;24.67;101921.66;10483904;28;20444;-78
2022/03/10 14:16:51;;;;;;;22.23;16.20;;;;;;;22.53;23.75;101903.47;10467953;28;20052;-78
2022/03/10 14:21:52;;;;;;;24.73;18.73;;;;;;;22.02;24.35;101894.66;10486766;28;20063;-78
2022/03/10 14:26:53;;;;;;;23.15;16.45;;;;;;;22.06;24.51;101893.81;10486287;28;20028;-78
2022/03/10 14:31:54;;;;;;;27.23;19.45;;;;;;;22.73;23.35;101890.41;10477655;28;20029;-76
2022/03/10 14:36:54;;;;;;;25.98;18.75;;;;;;;22.08;23.73;101885.00;10487243;28;20060;-78
2022/03/10 14:41:58;;;;;;;28.30;19.07;;;;;;;21.02;23.51;101878.59;10490585;28;20131;-77
2022/03/10 14:46:58;;;;;;;26.63;17.40;;;;;;;21.91;22.56;101874.03;10522537;28;20044;-77
2022/03/10 14:51:59;;;;;;;24.98;19.30;;;;;;;22.24;22.86;101863.91;10493414;28;20503;-76
2022/03/10 14:56:59;;;;;;;27.50;18.27;;;;;;;21.18;23.00;101856.75;10458713;28;20119;-76
2022/03/10 15:02:00;;;;;;;24.80;19.30;;;;;;;21.44;22.90;101853.69;10538956;28;20579;-76
2022/03/10 15:07:01;;;;;;;28.43;18.40;;;;;;;20.95;23.53;101846.53;10519472;28;20032;-76
2022/03/10 15:12:01;;;;;;;30.42;18.98;;;;;;;21.09;22.78;101841.47;10507049;28;20020;-78
2022/03/10 15:17:02;;;;;;;27.13;18.27;;;;;;;20.77;23.22;101843.47;10434599;28;20028;-77
2022/03/10 15:22:04;;;;;;;27.65;18.60;;;;;;;20.70;23.07;101834.44;10470388;28;20036;-77
2022/03/10 15:27:05;;;;;;;27.33;18.08;;;;;;;20.60;22.46;101829.81;10480057;28;20028;-76
2022/03/10 15:32:06;;;;;;;29.73;19.13;;;;;;;19.63;22.85;101816.91;10520429;28;20570;-76
2022/03/10 15:37:06;;;;;;;28.33;20.15;;;;;;;19.03;23.22;101808.25;10487870;28;20399;-77
2022/03/10 15:42:07;;;;;;;27.38;17.80;;;;;;;17.40;25.47;101818.16;10493977;28;20465;-76
2022/03/10 15:47:07;;;;;;;24.33;15.88;;;;;;;17.24;25.71;101815.00;10482122;28;20036;-75
2022/03/10 15:52:08;;;;;;;23.50;14.90;;;;;;;16.82;26.42;101804.63;10499362;28;20453;-75
2022/03/10 15:57:08;;;;;;;34.35;20.08;;;;;;;16.46;27.07;101805.03;10478524;28;20096;-73
2022/03/10 16:02:09;;;;;;;24.63;13.43;;;;;;;16.13;27.16;101795.88;10495556;28;20076;-74
2022/03/10 16:07:09;;;;;;;18.98;11.80;;;;;;;15.57;26.77;101801.50;10502170;28;20024;-74
2022/03/10 16:12:10;;;;;;;23.33;12.38;;;;;;;15.06;27.65;101804.59;10468056;28;20036;-76
2022/03/10 16:17:13;;;;;;;17.55;10.75;;;;;;;14.63;28.15;101793.00;10481413;28;20120;-76
2022/03/10 16:22:14;;;;;;;19.33;11.70;;;;;;;14.14;29.56;101803.03;10463821;28;20035;-75
2022/03/10 16:27:14;;;;;;;15.68;9.85;;;;;;;13.84;29.74;101803.34;10486265;28;20123;-78
2022/03/10 16:32:15;;;;;;;14.02;7.43;;;;;;;13.55;30.41;101804.50;10459700;28;20069;-78
2022/03/10 16:37:15;;;;;;;12.30;8.38;;;;;;;13.38;30.52;101801.88;10491812;28;20016;-77
2022/03/10 16:42:16;;;;;;;14.75;7.25;;;;;;;13.10;30.25;101805.72;10491826;28;20506;-77
2022/03/10 16:47:16;;;;;;;12.40;7.25;;;;;;;12.93;30.90;101802.22;10491846;28;20115;-77
2022/03/10 16:52:17;;;;;;;15.85;7.05;;;;;;;12.61;31.60;101804.03;10480735;28;20040;-77
2022/03/10 16:57:17;;;;;;;11.40;6.55;;;;;;;12.33;32.57;101805.13;10475467;28;20050;-78
2022/03/10 17:02:19;;;;;;;12.18;5.93;;;;;;;12.14;31.92;101814.59;10441119;28;20543;-77
2022/03/10 17:07:20;;;;;;;12.27;5.72;;;;;;;11.87;32.79;101817.44;10464289;28;20029;-76
2022/03/10 17:12:20;;;;;;;18.92;5.75;;;;;;;11.54;33.64;101812.03;10486535;28;20546;-76
2022/03/10 17:17:21;;;;;;;19.25;5.93;;;;;;;11.33;33.25;101801.16;10481993;28;20111;-78
2022/03/10 17:22:22;;;;;;;12.07;5.43;;;;;;;11.21;33.64;101805.66;10440386;28;20043;-78
2022/03/10 17:27:24;;;;;;;13.55;7.50;;;;;;;10.86;34.70;101805.34;10472634;28;20056;-77
2022/03/10 17:32:24;;;;;;;13.10;6.50;;;;;;;10.58;35.37;101808.88;10461431;28;20031;-76
2022/03/10 17:37:25;;;;;;;10.20;5.15;;;;;;;10.30;35.76;101820.19;10493576;28;20127;-79
2022/03/10 17:42:26;;;;;;;8.13;3.90;;;;;;;10.10;36.15;101822.41;10475327;28;20047;-79
2022/03/10 17:47:26;;;;;;;9.88;3.25;;;;;;;9.87;36.55;101820.91;10443863;28;20445;-80
2022/03/10 17:52:27;;;;;;;8.23;3.53;;;;;;;9.65;36.17;101827.31;10459954;28;20063;-79
2022/03/10 17:57:28;;;;;;;12.55;4.50;;;;;;;9.63;37.08;101823.69;10474837;28;20158;-78
2022/03/10 18:02:28;;;;;;;7.65;4.32;;;;;;;9.31;38.39;101825.03;10491662;28;20177;-78
2022/03/10 18:07:29;;;;;;;6.05;2.55;;;;;;;9.27;37.20;101819.53;10477159;28;20047;-78
2022/03/10 18:12:30;;;;;;;6.63;2.97;;;;;;;9.20;35.96;101815.56;10474987;28;20177;-78
2022/03/10 18:17:30;;;;;;;7.85;2.92;;;;;;;9.28;36.84;101816.09;10461015;28;20170;-79
2022/03/10 18:22:31;;;;;;;6.80;4.00;;;;;;;9.04;36.67;101819.75;10457184;28;20044;-79
2022/03/10 18:27:31;;;;;;;4.75;2.20;;;;;;;9.09;36.49;101809.63;10493404;28;20461;-80
2022/03/10 18:32:32;;;;;;;6.88;3.22;;;;;;;9.13;35.79;101808.09;10489047;28;20028;-79
2022/03/10 18:37:33;;;;;;;5.50;3.55;;;;;;;8.91;37.04;101807.56;10503289;28;20025;-80
2022/03/10 18:42:33;;;;;;;5.50;3.08;;;;;;;8.92;35.98;101805.84;10470885;28;20579;-80
2022/03/10 18:47:34;;;;;;;7.32;3.63;;;;;;;8.99;37.49;101794.13;10485602;28;20039;-79
2022/03/10 18:52:35;;;;;;;5.50;2.50;;;;;;;9.01;36.23;101792.53;10489843;28;20339;-82
2022/03/10 18:57:35;;;;;;;7.35;3.60;;;;;;;9.01;35.89;101788.19;10473573;28;20048;-81
2022/03/10 19:02:36;;;;;;;7.68;3.20;;;;;;;9.03;36.40;101797.03;10463437;28;20557;-78
2022/03/10 19:07:36;;;;;;;7.45;2.83;;;;;;;8.82;37.46;101789.53;10479738;28;20094;-78
2022/03/10 19:12:37;;;;;;;6.72;3.20;;;;;;;8.77;36.85;101796.13;10447727;28;20412;-79
2022/03/10 19:17:37;;;;;;;7.75;3.67;;;;;;;8.48;37.98;101788.84;10465533;28;20387;-81
2022/03/10 19:22:38;;;;;;;7.43;5.03;;;;;;;8.34;38.16;101795.66;10473580;28;20448;-79
2022/03/10 19:27:38;;;;;;;9.93;5.53;;;;;;;8.09;38.24;101804.34;10452627;28;20036;-78
2022/03/10 19:32:40;;;;;;;8.10;4.53;;;;;;;8.08;38.69;101802.53;10460522;28;20032;-79
2022/03/10 19:37:40;;;;;;;8.68;5.05;;;;;;;8.04;38.80;101801.41;10465112;28;20032;-80
2022/03/10 19:42:41;;;;;;;11.68;5.30;;;;;;;7.66;39.69;101801.16;10486734;28;20090;-79
2022/03/10 19:47:41;;;;;;;9.27;4.40;;;;;;;7.49;40.15;101798.22;10496660;28;20107;-79
2022/03/10 19:52:42;;;;;;;11.02;4.30;;;;;;;7.19;41.63;101795.09;10477336;28;20435;-78
2022/03/10 19:57:42;;;;;;;9.00;4.47;;;;;;;6.90;42.51;101798.97;10496312;28;20468;-78
2022/03/10 20:02:43;;;;;;;7.93;4.05;;;;;;;6.40;43.29;101794.25;10497957;28;20037;-79
2022/03/10 20:07:43;;;;;;;7.82;4.30;;;;;;;6.33;43.44;101790.22;10496047;28;20044;-79
2022/03/10 20:12:44;;;;;;;9.93;4.63;;;;;;;6.00;44.35;101787.66;10497857;28;20127;-78
2022/03/10 20:17:47;;;;;;;9.23;5.20;;;;;;;5.75;45.95;101796.81;10496330;28;20032;-78
2022/03/10 20:22:47;;;;;;;9.55;5.60;;;;;;;5.37;48.33;101790.22;10496189;28;20074;-78
2022/03/10 20:27:49;;;;;;;13.45;5.13;;;;;;;4.98;48.27;101795.69;10479013;28;20495;-78
2022/03/10 20:32:49;;;;;;;7.33;3.57;;;;;;;4.90;48.78;101791.53;10461971;28;20404;-79
2022/03/10 20:37:50;;;;;;;11.07;5.13;;;;;;;4.79;49.05;101801.00;10461242;28;20063;-78
2022/03/10 20:42:50;;;;;;;11.23;6.43;;;;;;;5.07;48.42;101789.47;10495019;28;20072;-78
2022/03/10 20:47:52;;;;;;;10.23;5.93;;;;;;;5.02;48.15;101791.69;10493689;28;20024;-78
2022/03/10 20:52:53;;;;;;;9.18;4.85;;;;;;;5.09;48.95;101793.09;10471891;28;20055;-77
2022/03/10 20:57:53;;;;;;;12.50;5.90;;;;;;;5.02;48.53;101790.75;10456286;28;20111;-78
2022/03/10 21:02:54;;;;;;;19.70;9.10;;;;;;;4.86;49.83;101786.88;10495242;28;20119;-78
2022/03/10 21:07:55;;;;;;;19.42;8.38;;;;;;;4.97;48.92;101780.00;10495369;28;20074;-77
2022/03/10 21:12:56;;;;;;;14.63;5.57;;;;;;;4.85;49.41;101777.28;10494583;28;20025;-77
2022/03/10 21:17:56;;;;;;;15.40;8.20;;;;;;;4.75;49.21;101772.06;10460338;28;20480;-77
2022/03/10 21:22:57;;;;;;;12.95;7.35;;;;;;;5.06;49.08;101769.50;10476731;28;20039;-78
2022/03/10 21:27:57;;;;;;;10.05;6.25;;;;;;;4.80;50.36;101769.09;10460580;28;20035;-78
2022/03/10 21:32:58;;;;;;;13.48;6.90;;;;;;;4.47;51.57;101770.63;10493942;28;20436;-78
2022/03/10 21:37:58;;;;;;;15.18;8.35;;;;;;;4.29;52.53;101762.13;10509681;28;20031;-78
2022/03/10 21:43:00;;;;;;;11.63;7.25;;;;;;;4.06;52.57;101753.25;10484430;28;20080;-77
2022/03/10 21:48:00;;;;;;;13.45;7.78;;;;;;;3.77;53.44;101754.16;10461254;28;20137;-78
2022/03/10 21:53:01;;;;;;;11.60;7.38;;;;;;;3.46;54.91;101747.94;10493387;28;20074;-78
2022/03/10 21:58:02;;;;;;;10.90;5.53;;;;;;;3.30;55.95;101743.94;10494526;28;20029;-78
2022/03/10 22:03:02;;;;;;;13.57;7.97;;;;;;;2.99;56.72;101741.13;10491888;28;20450;-78
2022/03/10 22:08:05;;;;;;;14.43;7.15;;;;;;;2.72;58.56;101749.81;10501895;28;20037;-78
2022/03/10 22:13:06;;;;;;;13.45;7.85;;;;;;;2.41;59.40;101747.84;10469151;28;20048;-78
2022/03/10 22:18:06;;;;;;;14.43;7.25;;;;;;;2.19;60.23;101745.81;10484171;28;20060;-78
2022/03/10 22:23:08;;;;;;;7.80;5.63;;;;;;;1.97;61.76;101739.34;10501344;28;20417;-78
2022/03/10 22:28:09;;;;;;;11.50;7.15;;;;;;;1.92;62.08;101731.16;10467786;28;20029;-78
2022/03/10 22:33:09;;;;;;;11.07;7.88;;;;;;;1.85;62.83;101731.31;10483302;28;20039;-78
2022/03/10 22:38:10;;;;;;;11.25;6.13;;;;;;;1.79;62.69;101725.56;10508127;28;20070;-78
2022/03/10 22:43:10;;;;;;;12.57;7.72;;;;;;;1.63;63.54;101724.06;10481648;28;20484;-78
2022/03/10 22:48:11;;;;;;;12.85;6.78;;;;;;;1.58;63.18;101709.81;10484922;28;20037;-77